createdAt,value
2017-12-12T00:02:01.365Z,6.60
2017-12-12T00:04:30.274Z,5.97
2017-12-12T00:06:59.116Z,6.07
2017-12-12T00:09:28.723Z,6.10
2017-12-12T00:11:58.325Z,5.80
2017-12-12T00:14:27.945Z,6.30
2017-12-12T00:16:57.554Z,5.95
2017-12-12T00:19:27.152Z,5.68
2017-12-12T00:21:55.981Z,5.10
2017-12-12T00:24:24.799Z,5.28
2017-12-12T00:26:54.203Z,5.20
2017-12-12T00:29:23.029Z,5.20
2017-12-12T00:31:51.862Z,5.03
2017-12-12T00:34:20.684Z,4.45
2017-12-12T00:36:49.507Z,4.55
2017-12-12T00:39:19.104Z,4.75
2017-12-12T00:41:47.922Z,3.50
2017-12-12T00:44:16.750Z,3.28
2017-12-12T00:46:45.573Z,2.78
2017-12-12T00:49:14.410Z,3.72
2017-12-12T00:51:43.241Z,3.58
2017-12-12T00:54:12.063Z,4.15
2017-12-12T00:56:42.232Z,4.37
2017-12-12T00:59:11.073Z,4.87
2017-12-12T01:01:41.657Z,3.97
2017-12-12T01:04:11.485Z,5.60
2017-12-12T01:06:40.316Z,4.68
2017-12-12T01:09:09.914Z,5.55
2017-12-12T01:11:40.498Z,5.55
2017-12-12T01:14:09.316Z,4.20
2017-12-12T01:16:38.153Z,4.82
2017-12-12T01:19:07.005Z,5.43
2017-12-12T01:21:36.599Z,5.12
2017-12-12T01:24:05.421Z,5.40
2017-12-12T01:26:35.018Z,5.43
2017-12-12T01:29:04.686Z,5.20
2017-12-12T01:31:33.514Z,5.90
2017-12-12T01:34:03.113Z,5.32
2017-12-12T01:36:32.868Z,4.93
2017-12-12T01:39:01.385Z,5.25
2017-12-12T01:41:29.595Z,5.20
2017-12-12T01:43:58.574Z,4.72
2017-12-12T01:46:28.112Z,5.18
2017-12-12T01:48:57.074Z,5.53
2017-12-12T01:51:25.282Z,4.95
2017-12-12T01:53:54.686Z,5.20
2017-12-12T01:56:23.221Z,5.55
2017-12-12T01:58:51.756Z,5.70
2017-12-12T02:01:20.585Z,5.55
2017-12-12T02:03:49.133Z,6.22
2017-12-12T02:06:17.983Z,5.93
2017-12-12T02:08:46.839Z,6.87
2017-12-12T02:11:15.373Z,6.45
2017-12-12T02:13:43.889Z,6.15
2017-12-12T02:16:12.426Z,7.10
2017-12-12T02:18:40.627Z,7.25
2017-12-12T02:21:10.484Z,6.75
2017-12-12T02:23:38.710Z,7.03
2017-12-12T02:26:07.687Z,6.68
2017-12-12T02:28:35.893Z,6.53
2017-12-12T02:31:04.104Z,7.75
2017-12-12T02:33:32.306Z,6.60
2017-12-12T02:36:01.301Z,7.30
2017-12-12T02:38:29.506Z,6.90
2017-12-12T02:40:58.486Z,7.47
2017-12-12T02:43:27.475Z,8.55
2017-12-12T02:45:55.678Z,6.47
2017-12-12T02:48:23.893Z,7.22
2017-12-12T02:50:52.105Z,6.32
2017-12-12T02:53:20.641Z,6.72
2017-12-12T02:55:49.069Z,7.07
2017-12-12T02:58:18.049Z,6.70
2017-12-12T03:00:46.566Z,7.15
2017-12-12T03:03:15.534Z,6.70
2017-12-12T03:05:43.734Z,5.78
2017-12-12T03:08:12.711Z,5.22
2017-12-12T03:10:42.005Z,6.43
2017-12-12T03:13:10.208Z,5.80
2017-12-12T03:15:38.406Z,6.65
2017-12-12T03:18:06.613Z,4.75
2017-12-12T03:20:34.817Z,5.15
2017-12-12T03:23:04.100Z,5.62
2017-12-12T03:25:32.965Z,5.05
2017-12-12T03:28:01.802Z,5.47
2017-12-12T03:30:31.082Z,5.55
2017-12-12T03:33:00.012Z,5.62
2017-12-12T03:35:29.889Z,4.60
2017-12-12T03:37:58.414Z,4.93
2017-12-12T03:40:27.284Z,5.53
2017-12-12T03:42:56.252Z,6.22
2017-12-12T03:45:24.902Z,4.53
2017-12-12T03:47:53.737Z,5.25
2017-12-12T03:50:23.226Z,5.07
2017-12-12T03:52:52.072Z,5.10
2017-12-12T03:55:21.237Z,5.00
2017-12-12T03:57:49.434Z,5.85
2017-12-12T04:00:18.412Z,5.20
2017-12-12T04:02:46.921Z,5.00
2017-12-12T04:05:15.121Z,4.75
2017-12-12T04:07:43.330Z,5.37
2017-12-12T04:10:12.776Z,5.72
2017-12-12T04:12:41.277Z,5.47
2017-12-12T04:15:09.818Z,5.57
2017-12-12T04:17:38.325Z,5.62
2017-12-12T04:20:06.849Z,5.82
2017-12-12T04:22:35.041Z,5.65
2017-12-12T04:25:04.078Z,5.60
2017-12-12T04:27:32.285Z,5.62
2017-12-12T04:30:00.491Z,5.90
2017-12-12T04:32:29.042Z,4.82
2017-12-12T04:34:57.905Z,5.62
2017-12-12T04:37:26.754Z,4.80
2017-12-12T04:39:54.955Z,5.70
2017-12-12T04:42:24.263Z,5.85
2017-12-12T04:44:53.237Z,5.07
2017-12-12T04:47:21.738Z,4.78
2017-12-12T04:49:50.579Z,4.70
2017-12-12T04:52:20.218Z,5.68
2017-12-12T04:54:48.796Z,5.00
2017-12-12T04:57:17.630Z,4.90
2017-12-12T04:59:46.172Z,6.20
2017-12-12T05:02:15.005Z,5.00
2017-12-12T05:04:43.213Z,4.62
2017-12-12T05:07:11.456Z,4.47
2017-12-12T05:09:40.293Z,5.12
2017-12-12T05:14:41.866Z,5.15
2017-12-12T05:17:10.077Z,4.80
2017-12-12T05:19:38.606Z,5.28
2017-12-12T05:22:08.957Z,4.50
2017-12-12T05:24:37.149Z,3.78
2017-12-12T05:27:05.677Z,4.50
2017-12-12T05:29:33.869Z,4.03
2017-12-12T05:32:02.780Z,3.80
2017-12-12T05:34:37.344Z,3.35
2017-12-12T05:37:06.192Z,2.45
2017-12-12T05:39:34.706Z,2.67
2017-12-12T05:42:03.984Z,2.60
2017-12-12T05:44:32.366Z,3.00
2017-12-12T05:47:00.565Z,1.20
2017-12-12T05:49:29.945Z,1.10
2017-12-12T05:51:58.148Z,1.10
2017-12-12T05:54:27.753Z,1.15
2017-12-12T05:56:57.410Z,1.05
2017-12-12T05:59:25.612Z,0.80
2017-12-12T06:01:54.162Z,1.00
2017-12-12T06:04:23.974Z,0.90
2017-12-12T06:06:52.849Z,1.20
2017-12-12T06:09:24.021Z,1.00
2017-12-12T06:11:52.261Z,1.00
2017-12-12T06:14:20.772Z,0.90
2017-12-12T06:16:49.621Z,1.00
2017-12-12T06:19:18.932Z,1.23
2017-12-12T06:21:47.141Z,1.20
2017-12-12T06:24:15.998Z,1.17
2017-12-12T06:26:44.864Z,1.00
2017-12-12T06:29:13.373Z,1.00
2017-12-12T06:31:41.981Z,1.10
2017-12-12T06:34:11.457Z,1.08
2017-12-12T06:36:40.382Z,1.23
2017-12-12T06:39:08.944Z,1.50
2017-12-12T06:41:37.783Z,1.25
2017-12-12T06:44:06.343Z,1.23
2017-12-12T06:46:34.904Z,1.23
2017-12-12T06:49:03.116Z,1.10
2017-12-12T06:51:32.263Z,1.10
2017-12-12T06:54:01.293Z,0.77
2017-12-12T06:56:29.821Z,0.82
2017-12-12T06:58:58.651Z,0.88
2017-12-12T07:01:27.687Z,1.02
2017-12-12T07:03:56.233Z,1.02
2017-12-12T07:06:24.754Z,1.00
2017-12-12T07:08:52.963Z,1.40
2017-12-12T07:11:22.933Z,1.20
2017-12-12T07:13:51.453Z,1.02
2017-12-12T07:16:19.969Z,0.90
2017-12-12T07:18:48.169Z,0.80
2017-12-12T07:21:17.098Z,1.00
2017-12-12T07:23:45.936Z,0.90
2017-12-12T08:57:14.658Z,1.77
2017-12-12T08:59:43.498Z,2.25
2017-12-12T09:02:12.342Z,1.20
